Time;durP1;ratioP1;P1;durP2;ratioP2;P2;SDS_P1;SDS_P2;PMS_P1;PMS_P2;Temp;Humidity;BMP_temperature;BMP_pressure;BME280_temperature;BME280_humidity;BME280_pressure;Samples;Min_cycle;Max_cycle;Signal;HPM_P1;HPM_P2
2021/07/23 00:00:09;;;;;;;9.17;6.30;;;18.60;1.00;;;;;;5052931;28;20201;-78
2021/07/23 00:02:35;;;;;;;8.30;6.17;;;18.50;1.00;;;;;;5053169;28;20173;-78
2021/07/23 00:05:00;;;;;;;8.00;6.13;;;18.40;1.00;;;;;;5052803;28;20179;-77
2021/07/23 00:07:26;;;;;;;7.37;6.23;;;18.40;1.00;;;;;;5052748;28;20212;-78
2021/07/23 00:09:52;;;;;;;10.00;6.53;;;18.40;1.00;;;;;;5052869;28;20168;-77
2021/07/23 00:12:18;;;;;;;9.70;6.17;;;18.40;1.00;;;;;;5053166;28;20183;-76
2021/07/23 00:14:43;;;;;;;8.30;6.40;;;18.40;1.00;;;;;;5053502;28;20161;-78
2021/07/23 00:17:10;;;;;;;10.10;6.43;;;18.30;1.00;;;;;;5053120;28;20165;-76
2021/07/23 00:19:41;;;;;;;8.83;5.17;;;18.20;1.00;;;;;;5053125;28;20170;-78
2021/07/23 00:22:07;;;;;;;10.00;5.90;;;18.30;1.00;;;;;;5052902;28;20164;-77
2021/07/23 00:24:33;;;;;;;8.90;6.00;;;18.10;1.00;;;;;;5052967;28;20595;-78
2021/07/23 00:26:59;;;;;;;8.60;6.50;;;18.20;1.00;;;;;;5052732;28;20201;-78
2021/07/23 00:29:24;;;;;;;8.27;6.27;;;18.20;1.00;;;;;;5052670;28;20173;-79
2021/07/23 00:31:50;;;;;;;9.10;6.20;;;18.20;1.00;;;;;;5052421;28;20211;-78
2021/07/23 00:34:16;;;;;;;7.43;5.73;;;18.20;1.00;;;;;;5052599;28;20207;-76
2021/07/23 00:36:41;;;;;;;6.90;5.90;;;18.10;1.00;;;;;;5051733;28;20633;-76
2021/07/23 00:39:07;;;;;;;9.70;6.63;;;18.00;1.00;;;;;;5051534;28;20238;-77
2021/07/23 00:41:33;;;;;;;9.10;7.13;;;17.90;2.40;;;;;;5051389;28;20211;-77
2021/07/23 00:43:58;;;;;;;7.03;6.03;;;18.00;5.40;;;;;;5052753;28;20161;-77
2021/07/23 00:46:30;;;;;;;11.10;6.73;;;17.80;6.20;;;;;;5053007;28;20203;-77
2021/07/23 00:48:55;;;;;;;7.83;6.40;;;17.90;9.60;;;;;;5056602;28;20625;-78
2021/07/23 00:51:21;;;;;;;10.17;6.17;;;17.80;10.10;;;;;;5056379;28;20260;-78
2021/07/23 00:53:48;;;;;;;8.83;7.20;;;17.90;10.60;;;;;;5056602;28;20236;-79
2021/07/23 00:56:13;;;;;;;9.73;6.93;;;17.80;12.80;;;;;;5055054;28;20177;-78
2021/07/23 00:58:39;;;;;;;9.00;6.93;;;17.70;13.40;;;;;;5056424;28;20184;-77
2021/07/23 01:01:05;;;;;;;9.17;6.43;;;17.70;14.30;;;;;;5056003;28;20165;-77
2021/07/23 01:03:32;;;;;;;9.00;6.73;;;17.60;17.90;;;;;;5056084;28;20176;-79
2021/07/23 01:05:58;;;;;;;8.73;6.83;;;17.70;20.00;;;;;;5056158;28;20177;-76
2021/07/23 01:08:24;;;;;;;8.60;6.97;;;17.60;18.00;;;;;;5056031;28;20687;-78
2021/07/23 01:10:49;;;;;;;9.13;7.07;;;17.60;19.70;;;;;;5056057;28;20173;-76
2021/07/23 01:13:15;;;;;;;11.07;7.17;;;17.60;18.50;;;;;;5055889;28;20256;-77
2021/07/23 01:15:42;;;;;;;9.30;7.40;;;17.60;20.90;;;;;;5055657;28;20632;-76
2021/07/23 01:18:08;;;;;;;8.20;6.60;;;17.60;24.70;;;;;;5055815;28;20172;-78
2021/07/23 01:20:34;;;;;;;9.60;7.20;;;17.50;25.30;;;;;;5056023;28;20177;-77
2021/07/23 01:23:01;;;;;;;8.97;7.07;;;17.60;24.80;;;;;;5055715;28;20251;-77
2021/07/23 01:25:28;;;;;;;10.33;7.27;;;17.40;24.70;;;;;;5055747;28;20179;-78
2021/07/23 01:27:56;;;;;;;8.73;6.77;;;17.40;28.80;;;;;;5055605;28;20250;-78
2021/07/23 01:30:22;;;;;;;11.37;7.50;;;17.40;29.90;;;;;;5055499;28;20506;-76
2021/07/23 01:32:49;;;;;;;11.67;7.50;;;17.40;30.00;;;;;;5055640;28;20192;-79
2021/07/23 01:35:15;;;;;;;8.43;6.80;;;17.30;29.20;;;;;;5055346;28;20253;-78
2021/07/23 01:37:42;;;;;;;9.07;7.23;;;17.30;32.80;;;;;;5055531;28;20278;-78
2021/07/23 01:40:08;;;;;;;11.10;7.30;;;17.40;32.00;;;;;;5054371;28;20318;-76
2021/07/23 01:42:36;;;;;;;9.43;7.30;;;17.40;30.30;;;;;;5055498;28;20176;-77
2021/07/23 01:45:03;;;;;;;8.50;6.90;;;17.40;31.90;;;;;;5055469;28;20169;-78
2021/07/23 01:47:29;;;;;;;9.33;7.87;;;17.40;31.10;;;;;;5055509;28;20331;-77
2021/07/23 01:49:54;;;;;;;8.67;7.53;;;17.40;32.70;;;;;;5055332;28;20701;-78
2021/07/23 01:52:20;;;;;;;9.20;6.97;;;17.40;32.40;;;;;;5055251;28;20609;-77
2021/07/23 01:54:46;;;;;;;12.30;7.90;;;17.40;32.50;;;;;;5054091;28;20263;-78
2021/07/23 01:57:12;;;;;;;8.90;7.30;;;17.40;33.30;;;;;;5055021;28;20200;-77
2021/07/23 01:59:38;;;;;;;8.97;7.33;;;17.30;36.20;;;;;;5054164;28;20227;-78
2021/07/23 02:02:03;;;;;;;9.63;6.90;;;17.20;37.50;;;;;;5055037;28;20169;-79
2021/07/23 02:04:29;;;;;;;10.53;7.43;;;17.30;36.10;;;;;;5054991;28;20532;-76
2021/07/23 02:06:55;;;;;;;10.47;8.00;;;17.20;38.20;;;;;;5054811;28;20203;-77
2021/07/23 02:09:20;;;;;;;9.70;8.00;;;17.20;40.30;;;;;;5053466;28;20172;-78
2021/07/23 02:11:46;;;;;;;10.93;7.83;;;17.10;42.30;;;;;;5055063;28;20161;-76
2021/07/23 02:14:13;;;;;;;9.07;7.50;;;17.10;42.80;;;;;;5054435;28;20169;-77
2021/07/23 02:16:39;;;;;;;9.57;7.70;;;17.10;43.60;;;;;;5054942;28;20176;-77
2021/07/23 02:19:06;;;;;;;9.47;7.73;;;17.10;48.30;;;;;;5055475;28;20694;-77
2021/07/23 02:21:34;;;;;;;11.00;8.30;;;16.90;49.50;;;;;;5055603;28;20264;-76
2021/07/23 02:24:00;;;;;;;11.93;7.47;;;16.90;50.10;;;;;;5055073;28;20184;-77
2021/07/23 02:26:26;;;;;;;10.70;8.60;;;16.80;52.30;;;;;;5054805;28;20239;-77
2021/07/23 02:28:52;;;;;;;10.10;7.50;;;16.80;55.60;;;;;;5055060;28;20216;-76
2021/07/23 02:31:17;;;;;;;11.13;8.10;;;16.80;55.00;;;;;;5053622;28;20199;-77
2021/07/23 02:33:44;;;;;;;8.97;7.70;;;16.90;55.80;;;;;;5055166;28;20182;-78
2021/07/23 02:36:10;;;;;;;14.27;8.30;;;16.80;56.40;;;;;;5054426;28;20180;-77
2021/07/23 02:38:35;;;;;;;10.83;7.80;;;16.70;58.30;;;;;;5054086;28;20169;-77
2021/07/23 02:41:02;;;;;;;12.67;8.10;;;16.60;61.10;;;;;;5054447;28;20171;-77
2021/07/23 02:43:27;;;;;;;8.47;7.60;;;16.70;63.90;;;;;;5053926;28;20187;-77
2021/07/23 02:45:54;;;;;;;13.37;8.63;;;16.60;66.20;;;;;;5054361;28;20642;-78
2021/07/23 02:48:20;;;;;;;10.27;8.37;;;16.50;67.80;;;;;;5052848;28;20270;-78
2021/07/23 02:50:46;;;;;;;10.07;7.57;;;16.60;69.00;;;;;;5054126;28;20165;-78
2021/07/23 02:53:12;;;;;;;9.10;7.83;;;16.60;65.50;;;;;;5052914;28;20169;-78
2021/07/23 02:55:37;;;;;;;10.40;8.20;;;16.60;65.60;;;;;;5053910;28;20169;-77
2021/07/23 02:58:03;;;;;;;12.77;8.80;;;16.60;67.70;;;;;;5053807;28;20179;-76
2021/07/23 03:00:32;;;;;;;12.17;8.97;;;16.40;71.80;;;;;;5053909;28;20165;-78
2021/07/23 03:02:57;;;;;;;10.70;7.57;;;16.40;72.00;;;;;;5054407;28;20522;-77
2021/07/23 03:05:23;;;;;;;9.73;8.20;;;16.40;73.00;;;;;;5059395;28;20218;-77
2021/07/23 03:07:52;;;;;;;12.40;9.20;;;16.40;74.70;;;;;;5053950;28;20222;-77
2021/07/23 03:10:18;;;;;;;12.43;8.20;;;16.40;75.60;;;;;;5052788;28;20169;-78
2021/07/23 03:12:44;;;;;;;12.17;8.63;;;16.40;75.90;;;;;;5053510;28;20656;-78
2021/07/23 03:15:10;;;;;;;10.60;8.40;;;16.50;74.70;;;;;;5053884;28;20226;-77
2021/07/23 03:17:36;;;;;;;12.70;9.77;;;16.40;73.90;;;;;;5053669;28;20169;-78
2021/07/23 03:20:02;;;;;;;11.10;8.50;;;16.50;75.40;;;;;;5053667;28;20176;-78
2021/07/23 03:22:29;;;;;;;12.77;9.00;;;16.40;76.70;;;;;;5053614;28;20172;-78
2021/07/23 03:24:55;;;;;;;11.17;9.07;;;16.40;77.80;;;;;;5053410;28;20196;-77
2021/07/23 03:27:21;;;;;;;11.57;9.10;;;16.40;78.00;;;;;;5053290;28;20200;-77
2021/07/23 03:29:47;;;;;;;11.90;9.40;;;16.30;77.80;;;;;;5053602;28;20168;-77
2021/07/23 03:32:13;;;;;;;13.43;9.43;;;16.30;78.90;;;;;;5053598;28;20173;-77
2021/07/23 03:34:38;;;;;;;11.77;9.17;;;16.30;80.00;;;;;;5053223;28;20177;-78
2021/07/23 03:37:04;;;;;;;14.63;9.27;;;16.30;79.80;;;;;;5053351;28;20231;-77
2021/07/23 03:39:30;;;;;;;11.43;8.83;;;16.30;80.50;;;;;;5053522;28;20161;-77
2021/07/23 03:41:55;;;;;;;11.67;8.97;;;16.20;81.20;;;;;;5051845;28;20172;-77
2021/07/23 03:44:21;;;;;;;11.40;9.40;;;16.10;83.30;;;;;;5053257;28;20632;-77
2021/07/23 03:46:47;;;;;;;14.27;9.93;;;16.00;83.70;;;;;;5053218;28;20698;-76
2021/07/23 03:49:13;;;;;;;14.43;10.00;;;16.00;84.80;;;;;;5053368;28;20177;-77
2021/07/23 03:51:38;;;;;;;11.63;9.10;;;16.00;86.50;;;;;;5053032;28;20184;-77
2021/07/23 03:54:04;;;;;;;12.87;10.20;;;16.00;86.50;;;;;;5053101;28;20233;-77
2021/07/23 03:56:30;;;;;;;14.33;9.40;;;16.00;84.60;;;;;;5052915;28;20625;-77
2021/07/23 03:58:56;;;;;;;13.53;9.83;;;16.00;85.50;;;;;;5053516;28;20176;-78
2021/07/23 04:01:22;;;;;;;11.53;9.10;;;15.90;87.20;;;;;;5053372;28;20584;-78
2021/07/23 04:03:47;;;;;;;12.23;10.37;;;16.00;88.10;;;;;;5053425;28;20216;-78
2021/07/23 04:06:13;;;;;;;15.50;10.13;;;15.90;87.40;;;;;;5053695;28;20207;-78
2021/07/23 04:08:40;;;;;;;15.63;9.60;;;15.90;87.30;;;;;;5055700;28;20198;-78
2021/07/23 04:11:06;;;;;;;11.20;9.27;;;15.80;88.10;;;;;;5058087;28;20172;-79
2021/07/23 04:13:32;;;;;;;13.40;10.67;;;16.00;88.90;;;;;;5063530;28;20176;-77
2021/07/23 04:15:57;;;;;;;12.73;9.90;;;16.00;87.60;;;;;;5062716;28;20206;-78
2021/07/23 04:18:23;;;;;;;13.97;10.40;;;16.10;87.80;;;;;;5054253;28;20204;-78
2021/07/23 04:20:49;;;;;;;12.13;9.57;;;16.10;84.90;;;;;;5053559;28;20255;-79
2021/07/23 04:23:14;;;;;;;13.13;9.67;;;16.10;84.20;;;;;;5056590;28;20555;-76
2021/07/23 04:25:40;;;;;;;12.77;9.83;;;16.10;84.30;;;;;;5057882;28;20177;-77
2021/07/23 04:28:09;;;;;;;12.33;10.10;;;16.00;85.90;;;;;;5058833;28;20290;-78
2021/07/23 04:30:34;;;;;;;13.53;9.97;;;16.10;84.70;;;;;;5059176;28;20173;-77
2021/07/23 04:33:00;;;;;;;13.37;10.20;;;16.00;87.10;;;;;;5059036;28;20177;-77
2021/07/23 04:35:26;;;;;;;13.43;9.97;;;16.00;87.30;;;;;;5059071;28;20694;-77
2021/07/23 04:37:52;;;;;;;14.93;10.07;;;16.10;86.90;;;;;;5062147;28;20188;-76
2021/07/23 04:40:17;;;;;;;15.07;10.53;;;16.10;86.40;;;;;;5061849;28;20227;-79
2021/07/23 04:42:43;;;;;;;12.87;10.53;;;16.10;84.90;;;;;;5062442;28;20325;-76
2021/07/23 04:45:09;;;;;;;13.43;10.63;;;16.20;84.40;;;;;;5060735;28;20234;-77
2021/07/23 04:47:35;;;;;;;12.37;10.20;;;16.10;83.20;;;;;;5057077;28;20204;-78
2021/07/23 04:50:01;;;;;;;16.17;10.67;;;16.10;83.70;;;;;;5056953;28;20179;-78
2021/07/23 04:52:27;;;;;;;12.60;10.10;;;16.10;85.70;;;;;;5056560;28;20168;-77
2021/07/23 04:54:53;;;;;;;14.20;10.33;;;16.10;84.20;;;;;;5055280;28;20209;-78
2021/07/23 04:57:26;;;;;;;13.37;10.20;;;16.20;81.90;;;;;;5055135;28;20204;-77
2021/07/23 04:59:51;;;;;;;12.67;10.20;;;16.30;80.70;;;;;;5056338;28;20222;-78
2021/07/23 05:02:17;;;;;;;16.27;10.93;;;16.30;80.40;;;;;;5056117;28;20176;-78
2021/07/23 05:04:43;;;;;;;12.57;10.60;;;16.30;79.60;;;;;;5056741;28;20231;-78
2021/07/23 05:07:09;;;;;;;13.27;10.47;;;16.40;77.90;;;;;;5055944;28;20225;-78
2021/07/23 05:09:35;;;;;;;12.97;10.47;;;16.60;76.10;;;;;;5056249;28;20256;-78
2021/07/23 05:12:02;;;;;;;15.00;10.77;;;16.50;72.80;;;;;;5056340;28;20180;-79
2021/07/23 05:14:28;;;;;;;11.93;10.63;;;16.60;71.50;;;;;;5056505;28;20200;-78
2021/07/23 05:16:54;;;;;;;14.13;10.57;;;16.60;72.20;;;;;;5056099;28;20161;-77
2021/07/23 05:19:21;;;;;;;15.03;10.43;;;16.50;72.20;;;;;;5055896;28;20710;-77
2021/07/23 05:21:47;;;;;;;13.10;10.70;;;16.70;70.60;;;;;;5055411;28;20531;-78
2021/07/23 05:24:13;;;;;;;12.53;10.53;;;16.60;71.00;;;;;;5055953;28;20194;-78
2021/07/23 05:26:39;;;;;;;15.20;10.53;;;16.60;71.70;;;;;;5054634;28;20193;-77
2021/07/23 05:29:06;;;;;;;12.30;10.30;;;16.60;70.80;;;;;;5055848;28;20184;-77
2021/07/23 05:31:32;;;;;;;13.37;11.07;;;16.60;71.10;;;;;;5054831;28;20168;-77
2021/07/23 05:33:58;;;;;;;14.30;10.43;;;16.70;67.20;;;;;;5054713;28;20166;-77
2021/07/23 05:36:27;;;;;;;12.80;10.37;;;16.90;64.60;;;;;;5055968;28;20176;-77
2021/07/23 05:38:54;;;;;;;14.40;11.33;;;16.80;63.20;;;;;;5056384;28;20165;-78
2021/07/23 05:41:20;;;;;;;14.67;10.63;;;16.70;65.30;;;;;;5056042;28;20535;-78
2021/07/23 05:43:46;;;;;;;15.70;11.67;;;16.60;66.90;;;;;;5057128;28;20220;-77
2021/07/23 05:46:12;;;;;;;14.13;11.23;;;16.60;67.20;;;;;;5057971;28;20235;-78
2021/07/23 05:48:39;;;;;;;14.27;11.63;;;16.50;69.10;;;;;;5058128;28;20640;-78
2021/07/23 05:51:06;;;;;;;14.07;10.67;;;16.60;68.90;;;;;;5058009;28;20176;-76
2021/07/23 05:53:33;;;;;;;17.17;11.53;;;16.70;68.70;;;;;;5056728;28;20618;-77
2021/07/23 05:55:59;;;;;;;17.10;12.87;;;16.70;67.60;;;;;;5055550;28;20553;-77
2021/07/23 05:58:28;;;;;;;15.23;12.17;;;16.90;63.30;;;;;;5055497;28;20258;-77
2021/07/23 06:00:55;;;;;;;13.47;10.53;;;16.90;59.40;;;;;;5055667;28;20215;-78
2021/07/23 06:03:21;;;;;;;13.77;11.13;;;17.00;59.80;;;;;;5055175;28;20179;-78
2021/07/23 06:05:47;;;;;;;14.57;11.63;;;17.00;58.70;;;;;;5054869;28;20177;-78
2021/07/23 06:08:13;;;;;;;14.67;11.03;;;17.10;56.60;;;;;;5053390;28;20220;-76
2021/07/23 06:10:39;;;;;;;14.60;11.07;;;16.90;56.50;;;;;;5055334;28;20172;-79
2021/07/23 06:13:05;;;;;;;14.83;12.40;;;17.00;58.40;;;;;;5053671;28;20191;-77
2021/07/23 06:15:30;;;;;;;13.83;11.97;;;17.10;57.70;;;;;;5053566;28;20173;-77
2021/07/23 06:17:57;;;;;;;17.20;12.40;;;17.10;57.00;;;;;;5053393;28;20588;-78
2021/07/23 06:20:23;;;;;;;15.77;11.43;;;17.10;55.70;;;;;;5054509;28;20165;-77
2021/07/23 06:22:53;;;;;;;17.27;12.53;;;17.10;50.50;;;;;;5054563;28;20185;-79
2021/07/23 06:25:18;;;;;;;15.00;12.67;;;17.10;52.30;;;;;;5054546;28;20248;-78
2021/07/23 06:27:50;;;;;;;15.70;12.57;;;17.20;54.40;;;;;;5054942;28;20316;-78
2021/07/23 06:30:16;;;;;;;16.20;12.80;;;17.30;50.20;;;;;;5054959;28;20223;-80
2021/07/23 06:32:42;;;;;;;16.77;12.23;;;17.40;47.50;;;;;;5056706;28;20181;-79
2021/07/23 06:35:09;;;;;;;15.37;12.30;;;17.50;42.70;;;;;;5054942;28;20169;-80
2021/07/23 06:37:35;;;;;;;13.90;12.20;;;17.50;50.00;;;;;;5054588;28;20231;-79
2021/07/23 06:40:01;;;;;;;14.57;12.30;;;17.60;40.40;;;;;;5054384;28;20161;-80
2021/07/23 06:42:26;;;;;;;16.73;12.57;;;17.40;45.50;;;;;;5053830;28;20226;-77
2021/07/23 06:44:52;;;;;;;15.23;12.43;;;17.40;50.00;;;;;;5054303;28;20655;-78
2021/07/23 06:47:20;;;;;;;15.30;11.97;;;17.40;47.80;;;;;;5054635;28;20220;-77
2021/07/23 06:49:48;;;;;;;16.47;12.57;;;17.50;45.40;;;;;;5053608;28;20623;-76
2021/07/23 06:52:13;;;;;;;14.77;12.80;;;17.40;43.70;;;;;;5054451;28;20671;-79
2021/07/23 06:54:39;;;;;;;17.10;12.57;;;17.30;47.10;;;;;;5053927;28;20173;-79
2021/07/23 06:57:05;;;;;;;14.60;12.70;;;17.30;50.90;;;;;;5052656;28;20674;-79
2021/07/23 06:59:35;;;;;;;16.07;12.40;;;17.20;52.00;;;;;;5054193;28;20633;-77
2021/07/23 07:02:04;;;;;;;14.63;12.97;;;17.20;52.80;;;;;;5052909;28;20657;-78
2021/07/23 07:04:32;;;;;;;17.27;12.63;;;17.10;53.40;;;;;;5053708;28;20165;-79
2021/07/23 07:06:59;;;;;;;15.90;13.00;;;17.20;54.70;;;;;;5052278;28;20211;-78
2021/07/23 07:09:26;;;;;;;15.30;13.03;;;17.30;55.00;;;;;;5053881;28;20629;-78
2021/07/23 07:11:55;;;;;;;17.83;12.90;;;17.30;51.40;;;;;;5054115;28;20283;-77
2021/07/23 07:14:22;;;;;;;20.97;12.77;;;17.50;50.60;;;;;;5053906;28;20180;-79
2021/07/23 07:16:51;;;;;;;16.90;13.13;;;17.60;46.90;;;;;;5052530;28;20263;-79
2021/07/23 07:19:17;;;;;;;17.47;13.40;;;17.70;40.30;;;;;;5052238;28;20169;-79
2021/07/23 07:21:48;;;;;;;17.77;13.67;;;17.80;39.90;;;;;;5052837;28;20552;-78
2021/07/23 07:24:15;;;;;;;15.60;12.20;;;17.70;40.40;;;;;;5053909;28;20189;-78
2021/07/23 07:26:41;;;;;;;15.97;13.13;;;17.80;43.50;;;;;;5052619;28;20209;-77
2021/07/23 07:29:07;;;;;;;16.33;12.37;;;17.70;43.10;;;;;;5052598;28;20177;-80
2021/07/23 07:31:33;;;;;;;15.07;12.67;;;17.70;43.20;;;;;;5052675;28;20544;-79
2021/07/23 07:33:58;;;;;;;15.63;12.70;;;17.70;44.00;;;;;;5054099;28;20172;-78
2021/07/23 07:36:25;;;;;;;16.10;12.60;;;17.80;41.80;;;;;;5053808;28;20173;-80
2021/07/23 07:38:51;;;;;;;18.07;13.20;;;17.80;43.00;;;;;;5053556;28;20500;-79
2021/07/23 07:41:25;;;;;;;20.13;13.07;;;17.80;46.20;;;;;;5053476;28;20275;-78
2021/07/23 07:43:51;;;;;;;14.90;11.83;;;17.80;44.20;;;;;;5053968;28;20169;-79
2021/07/23 07:46:17;;;;;;;17.20;12.60;;;17.90;44.20;;;;;;5053558;28;20172;-78
2021/07/23 07:48:42;;;;;;;15.03;12.70;;;18.00;36.30;;;;;;5053536;28;20181;-79
2021/07/23 07:51:09;;;;;;;16.57;12.27;;;18.10;36.20;;;;;;5053530;28;20554;-79
2021/07/23 07:53:37;;;;;;;16.67;12.80;;;18.20;43.00;;;;;;5053471;28;20250;-78
2021/07/23 07:56:10;;;;;;;15.00;12.70;;;18.30;33.10;;;;;;5051184;28;20170;-79
2021/07/23 07:58:35;;;;;;;15.37;12.03;;;18.50;23.80;;;;;;5053144;28;20171;-79
2021/07/23 08:01:09;;;;;;;17.90;12.93;;;18.60;17.30;;;;;;5052953;28;20169;-79
2021/07/23 08:03:35;;;;;;;16.10;11.60;;;18.70;15.40;;;;;;5053271;28;20169;-78
2021/07/23 08:06:10;;;;;;;15.10;11.60;;;18.90;6.90;;;;;;5053380;28;20165;-79
2021/07/23 08:08:36;;;;;;;15.63;12.07;;;19.00;1.00;;;;;;5053238;28;20633;-79
2021/07/23 08:11:02;;;;;;;14.57;12.17;;;19.10;1.00;;;;;;5051934;28;20171;-79
2021/07/23 08:13:28;;;;;;;15.50;11.87;;;19.20;1.00;;;;;;5052990;28;20176;-79
2021/07/23 08:15:55;;;;;;;14.63;10.97;;;19.20;1.00;;;;;;5052784;28;20173;-79
2021/07/23 08:18:21;;;;;;;13.57;11.07;;;19.10;1.00;;;;;;5051936;28;20663;-76
2021/07/23 08:20:50;;;;;;;13.70;11.50;;;19.00;1.00;;;;;;5053737;28;20173;-78
2021/07/23 08:23:17;;;;;;;14.30;11.63;;;19.00;1.00;;;;;;5051802;28;20544;-80
2021/07/23 08:25:42;;;;;;;14.13;10.57;;;19.30;1.00;;;;;;5052920;28;20170;-78
2021/07/23 08:28:08;;;;;;;16.13;11.10;;;19.40;1.00;;;;;;5053449;28;20215;-79
2021/07/23 08:30:34;;;;;;;13.30;10.93;;;19.40;1.00;;;;;;5056699;28;20196;-78
2021/07/23 08:32:59;;;;;;;14.40;10.60;;;19.40;1.00;;;;;;5056272;28;20235;-78
2021/07/23 08:35:25;;;;;;;13.13;10.20;;;19.50;1.00;;;;;;5059412;28;20219;-79
2021/07/23 08:37:51;;;;;;;12.47;10.70;;;19.60;1.00;;;;;;5064864;28;20165;-77
2021/07/23 08:40:17;;;;;;;14.67;9.80;;;19.70;1.00;;;;;;5067032;28;20188;-76
2021/07/23 08:42:43;;;;;;;13.23;10.00;;;19.80;1.00;;;;;;5073901;28;20165;-75
2021/07/23 08:45:09;;;;;;;15.83;10.70;;;20.00;1.00;;;;;;5074493;28;20171;-80
2021/07/23 08:47:36;;;;;;;14.20;10.17;;;20.10;1.00;;;;;;5075399;28;20213;-77
2021/07/23 08:50:04;;;;;;;15.43;10.63;;;20.20;1.00;;;;;;5061053;28;20162;-79
2021/07/23 08:52:43;;;;;;;12.33;9.37;;;20.10;1.00;;;;;;5055013;28;20184;-78
2021/07/23 08:55:11;;;;;;;13.60;10.33;;;20.20;1.00;;;;;;5052665;28;20169;-79
2021/07/23 08:57:37;;;;;;;12.80;10.03;;;20.30;1.00;;;;;;5051466;28;20177;-80
2021/07/23 09:00:11;;;;;;;12.60;10.10;;;20.40;1.00;;;;;;5052631;28;20171;-78
2021/07/23 09:02:58;;;;;;;15.23;10.73;;;20.50;1.00;;;;;;5052858;28;20174;-79
2021/07/23 09:05:38;;;;;;;16.20;11.80;;;20.60;1.00;;;;;;5052713;28;20641;-79
2021/07/23 09:08:18;;;;;;;12.83;9.50;;;20.60;1.00;;;;;;5054780;28;20515;-78
2021/07/23 09:10:45;;;;;;;13.83;9.97;;;20.80;1.00;;;;;;5056162;28;20158;-78
2021/07/23 09:13:23;;;;;;;12.47;9.40;;;20.80;1.00;;;;;;5056221;28;20228;-78
2021/07/23 09:15:50;;;;;;;10.93;9.47;;;20.90;1.00;;;;;;5056465;28;20634;-79
2021/07/23 09:18:31;;;;;;;13.07;10.00;;;20.90;1.00;;;;;;5056048;28;20184;-78
2021/07/23 09:20:58;;;;;;;13.80;9.67;;;20.70;1.00;;;;;;5054640;28;20214;-78
2021/07/23 09:23:31;;;;;;;11.93;9.60;;;20.90;1.00;;;;;;5055754;28;20189;-78
2021/07/23 09:26:08;;;;;;;14.17;10.60;;;20.90;1.00;;;;;;5056020;28;20173;-78
2021/07/23 09:28:41;;;;;;;10.60;9.33;;;20.90;1.00;;;;;;5055595;28;20211;-78
2021/07/23 09:31:09;;;;;;;10.30;9.20;;;20.90;1.00;;;;;;5056590;28;20167;-77
2021/07/23 09:33:40;;;;;;;12.60;9.00;;;20.90;1.00;;;;;;5055613;28;20646;-78
2021/07/23 09:36:11;;;;;;;11.60;9.30;;;21.00;1.00;;;;;;5054366;28;20175;-80
2021/07/23 09:38:47;;;;;;;12.07;8.33;;;21.00;1.00;;;;;;5055450;28;20604;-79
2021/07/23 09:41:22;;;;;;;12.90;9.13;;;21.00;1.00;;;;;;5055478;28;20179;-79
2021/07/23 09:43:57;;;;;;;13.37;8.60;;;21.10;1.00;;;;;;5055361;28;20194;-78
2021/07/23 09:46:26;;;;;;;10.90;8.87;;;21.10;1.00;;;;;;5056123;28;20174;-79
2021/07/23 09:48:54;;;;;;;10.10;9.00;;;21.30;1.00;;;;;;5055317;28;20165;-79
2021/07/23 09:51:21;;;;;;;10.77;8.83;;;21.20;1.00;;;;;;5055467;28;20566;-81
2021/07/23 09:53:48;;;;;;;10.77;8.37;;;21.20;1.00;;;;;;5055722;28;20167;-77
2021/07/23 09:56:14;;;;;;;11.23;8.23;;;21.20;1.00;;;;;;5055648;28;20176;-79
2021/07/23 09:58:45;;;;;;;11.40;8.93;;;21.30;1.00;;;;;;5055109;28;20243;-78
2021/07/23 10:01:14;;;;;;;11.87;9.07;;;21.50;1.00;;;;;;5054484;28;20223;-79
2021/07/23 10:03:45;;;;;;;11.40;9.10;;;21.40;1.00;;;;;;5054928;28;20183;-78
2021/07/23 10:06:15;;;;;;;9.33;8.30;;;21.50;1.00;;;;;;5055573;28;20172;-79
2021/07/23 10:08:46;;;;;;;13.70;9.07;;;21.60;1.00;;;;;;5053909;28;20219;-78
2021/07/23 10:11:12;;;;;;;12.87;8.57;;;21.70;1.00;;;;;;5055456;28;20204;-78
2021/07/23 10:13:39;;;;;;;11.37;8.50;;;21.90;1.00;;;;;;5053250;28;20544;-78
2021/07/23 10:16:09;;;;;;;9.60;8.40;;;21.90;99.90;;;;;;5054938;28;20625;-79
2021/07/23 10:18:36;;;;;;;12.70;8.67;;;21.70;1.00;;;;;;5054603;28;20207;-78
2021/07/23 10:21:05;;;;;;;14.23;8.50;;;21.80;1.00;;;;;;5054575;28;20175;-79
2021/07/23 10:23:32;;;;;;;10.30;7.97;;;21.80;99.90;;;;;;5054818;28;20190;-80
2021/07/23 10:26:01;;;;;;;11.00;7.90;;;21.90;1.00;;;;;;5054392;28;20637;-77
2021/07/23 10:28:42;;;;;;;9.83;7.07;;;21.80;99.90;;;;;;5054570;28;20291;-78
2021/07/23 10:31:17;;;;;;;9.63;8.20;;;21.90;1.00;;;;;;5055030;28;20191;-80
2021/07/23 10:34:00;;;;;;;9.80;8.23;;;21.90;99.90;;;;;;5054706;28;20252;-78
2021/07/23 10:36:32;;;;;;;11.20;7.97;;;22.00;1.00;;;;;;5054828;28;20213;-78
2021/07/23 10:39:10;;;;;;;9.27;8.03;;;22.10;99.90;;;;;;5053165;28;20211;-78
2021/07/23 10:41:39;;;;;;;10.00;7.57;;;22.20;99.90;;;;;;5054943;28;20161;-77
2021/07/23 10:44:33;;;;;;;9.53;7.93;;;22.40;1.00;;;;;;5053336;28;20525;-79
2021/07/23 10:46:59;;;;;;;10.90;7.47;;;22.50;1.00;;;;;;5054572;28;20319;-78
2021/07/23 10:49:28;;;;;;;8.80;7.23;;;22.60;99.90;;;;;;5054054;28;20253;-77
2021/07/23 10:52:01;;;;;;;13.30;8.30;;;22.70;99.90;;;;;;5055918;28;20173;-79
2021/07/23 10:54:31;;;;;;;11.60;6.87;;;22.80;99.90;;;;;;5054313;28;20170;-79
2021/07/23 10:57:04;;;;;;;8.97;7.10;;;22.80;1.00;;;;;;5053829;28;20175;-78
2021/07/23 10:59:41;;;;;;;8.00;7.10;;;22.70;99.90;;;;;;5054234;28;20173;-78
2021/07/23 11:02:27;;;;;;;9.97;7.20;;;22.80;56.00;;;;;;5053271;28;20174;-79
2021/07/23 11:05:04;;;;;;;12.53;8.07;;;22.80;99.90;;;;;;5054308;28;20261;-79
2021/07/23 11:07:30;;;;;;;10.60;7.50;;;22.80;99.90;;;;;;5054170;28;20213;-78
2021/07/23 11:09:56;;;;;;;8.30;7.37;;;22.80;99.90;;;;;;5053870;28;20716;-78
2021/07/23 11:12:25;;;;;;;9.17;8.10;;;22.70;1.00;;;;;;5054762;28;20248;-79
2021/07/23 11:14:54;;;;;;;10.87;7.90;;;22.60;1.00;;;;;;5053870;28;20615;-79
2021/07/23 11:17:21;;;;;;;11.07;7.23;;;22.50;99.90;;;;;;5054034;28;20646;-78
2021/07/23 11:20:04;;;;;;;9.53;7.57;;;22.70;85.00;;;;;;5054057;28;20166;-79
2021/07/23 11:22:32;;;;;;;10.67;7.10;;;22.90;68.20;;;;;;5054888;28;20162;-79
2021/07/23 11:25:01;;;;;;;7.07;6.03;;;23.00;99.90;;;;;;5055283;28;20216;-78
2021/07/23 11:27:32;;;;;;;8.63;6.87;;;23.10;99.90;;;;;;5053216;28;20204;-78
2021/07/23 11:29:59;;;;;;;8.57;7.07;;;23.00;99.90;;;;;;5053295;28;20170;-80
2021/07/23 11:32:29;;;;;;;8.40;6.37;;;22.90;99.90;;;;;;5052670;28;20177;-79
2021/07/23 11:35:04;;;;;;;11.63;7.80;;;22.90;99.90;;;;;;5053311;28;20246;-78
2021/07/23 11:37:30;;;;;;;8.53;7.13;;;22.80;99.90;;;;;;5053240;28;20663;-78
2021/07/23 11:39:56;;;;;;;12.53;7.37;;;22.70;3.90;;;;;;5051647;28;20186;-78
2021/07/23 11:42:24;;;;;;;8.30;5.97;;;22.90;69.50;;;;;;5053380;28;20195;-78
2021/07/23 11:44:53;;;;;;;7.60;5.40;;;23.10;53.50;;;;;;5054530;28;20684;-77
2021/07/23 11:47:30;;;;;;;9.93;6.00;;;23.10;99.90;;;;;;5053731;28;20218;-79
2021/07/23 11:49:57;;;;;;;8.93;6.43;;;23.20;1.00;;;;;;5052535;28;20631;-78
2021/07/23 11:52:24;;;;;;;7.60;6.40;;;23.20;1.00;;;;;;5053066;28;20245;-79
2021/07/23 11:55:04;;;;;;;8.33;6.50;;;23.40;72.30;;;;;;5052928;28;20167;-78
2021/07/23 11:57:31;;;;;;;7.07;5.33;;;23.40;1.00;;;;;;5053246;28;20227;-79
2021/07/23 11:59:57;;;;;;;9.00;5.83;;;23.40;99.90;;;;;;5053364;28;20174;-79
2021/07/23 12:02:28;;;;;;;8.00;6.37;;;23.40;1.00;;;;;;5052928;28;20295;-79
2021/07/23 12:05:07;;;;;;;8.47;6.40;;;23.50;50.50;;;;;;5053052;28;20233;-79
2021/07/23 12:07:34;;;;;;;9.30;6.87;;;23.50;99.90;;;;;;5052937;28;20210;-79
2021/07/23 12:10:03;;;;;;;7.97;6.07;;;23.30;1.00;;;;;;5053115;28;20182;-79
2021/07/23 12:12:29;;;;;;;9.07;5.90;;;23.30;1.00;;;;;;5053264;28;20169;-79
2021/07/23 12:15:02;;;;;;;9.37;5.73;;;23.20;1.00;;;;;;5053225;28;20164;-79
2021/07/23 12:17:28;;;;;;;7.70;5.40;;;23.40;99.90;;;;;;5052807;28;20260;-79
2021/07/23 12:19:55;;;;;;;8.70;5.57;;;23.60;22.90;;;;;;5053389;28;20245;-80
2021/07/23 12:22:21;;;;;;;7.57;5.60;;;23.70;99.90;;;;;;5051542;28;20194;-78
2021/07/23 12:24:46;;;;;;;6.67;5.30;;;23.70;10.10;;;;;;5052676;28;20733;-78
2021/07/23 12:27:17;;;;;;;9.93;5.53;;;23.70;75.60;;;;;;5052511;28;20347;-79
2021/07/23 12:29:43;;;;;;;7.17;5.60;;;23.80;1.00;;;;;;5052705;28;20198;-78
2021/07/23 12:32:19;;;;;;;7.57;5.30;;;24.00;1.00;;;;;;5053217;28;20176;-80
2021/07/23 12:34:57;;;;;;;7.27;5.07;;;24.10;1.00;;;;;;5053214;28;20672;-78
2021/07/23 12:37:24;;;;;;;6.63;6.00;;;24.30;1.00;;;;;;5052769;28;20535;-78
2021/07/23 12:40:06;;;;;;;7.23;5.77;;;24.20;1.00;;;;;;5053084;28;20168;-78